createdAt,value
2023-03-31T00:06:48.176Z,975.95
2023-03-31T00:18:48.586Z,975.80
2023-03-31T00:30:51.882Z,975.65
2023-03-31T00:42:49.557Z,975.71
2023-03-31T00:54:52.780Z,975.63
2023-03-31T01:06:50.473Z,975.54
2023-03-31T01:18:50.948Z,975.55
2023-03-31T01:30:51.367Z,975.49
2023-03-31T01:42:51.817Z,975.42
2023-03-31T01:54:52.283Z,975.38
2023-03-31T02:06:52.714Z,975.03
2023-03-31T02:18:53.195Z,975.10
2023-03-31T02:30:53.577Z,974.88
2023-03-31T02:42:54.054Z,974.69
2023-03-31T02:54:57.320Z,974.50
2023-03-31T03:06:54.969Z,974.62
2023-03-31T03:18:55.421Z,974.59
2023-03-31T03:30:55.906Z,974.44
2023-03-31T03:42:56.325Z,974.32
2023-03-31T03:54:56.803Z,974.41
2023-03-31T04:06:57.322Z,974.01
2023-03-31T04:18:57.716Z,974.21
2023-03-31T04:30:58.135Z,974.13
2023-03-31T04:42:58.597Z,973.69
2023-03-31T04:54:59.067Z,973.69
2023-03-31T05:06:59.484Z,973.61
2023-03-31T05:19:00.032Z,973.53
2023-03-31T05:31:00.425Z,973.49
2023-03-31T05:43:00.854Z,973.46
2023-03-31T05:55:01.396Z,973.16
2023-03-31T06:07:01.817Z,972.81
2023-03-31T06:19:02.250Z,972.76
2023-03-31T06:31:02.809Z,972.70
2023-03-31T06:43:03.120Z,972.35
2023-03-31T06:55:03.587Z,972.28
2023-03-31T07:07:04.045Z,972.17
2023-03-31T07:19:04.471Z,971.97
2023-03-31T07:31:05.229Z,971.97
2023-03-31T07:43:05.386Z,971.94
2023-03-31T07:55:05.909Z,971.83
2023-03-31T08:07:06.301Z,971.31
2023-03-31T08:19:06.756Z,971.15
2023-03-31T08:31:07.278Z,970.95
2023-03-31T08:43:07.680Z,970.79
2023-03-31T08:55:08.150Z,970.97
2023-03-31T09:07:08.572Z,970.92
2023-03-31T09:19:09.032Z,970.67
2023-03-31T09:31:09.528Z,970.35
2023-03-31T09:43:09.959Z,969.93
2023-03-31T09:55:10.373Z,969.77
2023-03-31T10:07:10.837Z,969.42
2023-03-31T10:19:11.291Z,969.25
2023-03-31T10:31:11.747Z,968.81
2023-03-31T10:43:12.190Z,968.64
2023-03-31T10:55:12.639Z,968.40
2023-03-31T11:07:13.110Z,968.43
2023-03-31T11:19:13.524Z,968.46
2023-03-31T11:31:13.985Z,968.28
2023-03-31T11:43:14.432Z,968.17
2023-03-31T11:55:14.927Z,967.90
2023-03-31T12:07:15.347Z,967.86
2023-03-31T12:19:15.873Z,967.40
2023-03-31T12:31:16.377Z,967.17
2023-03-31T12:43:16.908Z,967.15
2023-03-31T12:55:17.155Z,966.91
2023-03-31T13:07:28.392Z,966.77
2023-03-31T13:19:18.076Z,966.67
2023-03-31T13:31:18.601Z,966.35
2023-03-31T13:43:19.011Z,966.07
2023-03-31T13:55:19.452Z,965.95
2023-03-31T14:07:19.879Z,965.60
2023-03-31T14:31:20.885Z,965.48
2023-03-31T14:43:21.263Z,965.20
2023-03-31T14:55:22.583Z,965.09
2023-03-31T15:07:22.230Z,965.10
2023-03-31T15:19:22.628Z,965.12
2023-03-31T15:31:23.164Z,965.13
2023-03-31T15:43:25.797Z,965.38
2023-03-31T15:55:24.014Z,965.37
2023-03-31T16:07:24.457Z,965.67
2023-03-31T16:19:24.897Z,966.07
2023-03-31T16:25:26.636Z,966.27
2023-03-31T16:31:24.985Z,966.58
2023-03-31T16:43:25.376Z,967.34
2023-03-31T16:55:25.865Z,967.48
2023-03-31T17:07:26.298Z,967.26
2023-03-31T17:13:26.476Z,967.22
2023-03-31T17:19:26.332Z,967.06
2023-03-31T17:31:26.734Z,966.94
2023-03-31T17:43:27.180Z,966.67
2023-03-31T17:55:27.790Z,966.57
2023-03-31T18:07:28.084Z,966.48
2023-03-31T18:13:28.072Z,966.69
2023-03-31T18:19:28.072Z,966.48
2023-03-31T18:31:28.703Z,966.53
2023-03-31T18:37:28.559Z,966.41
2023-03-31T18:43:28.854Z,966.33
2023-03-31T18:55:29.378Z,966.68
2023-03-31T19:07:29.531Z,966.49
2023-03-31T19:19:29.904Z,966.49
2023-03-31T19:31:30.359Z,966.60
2023-03-31T19:43:31.027Z,966.62
2023-03-31T19:55:31.475Z,966.70
2023-03-31T20:07:31.727Z,966.62
2023-03-31T20:19:32.165Z,966.57
2023-03-31T20:31:32.666Z,966.42
2023-03-31T20:43:33.100Z,966.30
2023-03-31T20:55:33.779Z,966.33
2023-03-31T21:07:33.985Z,966.23
2023-03-31T21:19:34.437Z,966.17
2023-03-31T21:31:35.012Z,966.07
2023-03-31T21:43:35.364Z,966.04
2023-03-31T21:55:35.814Z,965.56
2023-03-31T22:07:36.225Z,965.67
2023-03-31T22:19:36.706Z,965.43
2023-03-31T22:31:37.205Z,965.80
2023-03-31T22:43:37.612Z,965.87
2023-03-31T22:55:38.062Z,965.83
2023-03-31T23:07:38.585Z,965.88
2023-03-31T23:19:41.195Z,965.84
2023-03-31T23:31:39.635Z,965.62
2023-03-31T23:43:42.161Z,965.65
2023-03-31T23:55:40.359Z,965.64
